Time;durP1;ratioP1;P1;durP2;ratioP2;P2;SDS_P1;SDS_P2;PMS_P1;PMS_P2;Temp;Humidity;BMP_temperature;BMP_pressure;BME280_temperature;BME280_humidity;BME280_pressure;Samples;Min_cycle;Max_cycle;Signal;HPM_P1;HPM_P2
2022/04/01 00:01:26;;;;;;;21.20;11.70;;;;;;;5.91;94.68;97964.15;109025;1277;138718;-60
2022/04/01 00:03:54;;;;;;;19.70;13.10;;;;;;;5.90;94.67;97967.13;109120;1277;22542;-60
2022/04/01 00:06:23;;;;;;;20.80;12.80;;;;;;;5.89;94.98;97957.13;109054;1277;137818;-59
2022/04/01 00:09:11;;;;;;;19.70;12.70;;;;;;;5.90;94.87;97951.66;109107;1277;23035;-59
2022/04/01 00:11:39;;;;;;;18.70;12.60;;;;;;;5.90;94.79;97944.09;109063;1277;138708;-60
2022/04/01 00:14:27;;;;;;;;;;;;;;;5.90;94.74;97934.41;109210;1277;22547;-60
2022/04/01 00:16:58;;;;;;;21.80;13.30;;;;;;;5.90;94.98;97927.88;109184;1278;22402;-59
2022/04/01 00:19:36;;;;;;;21.80;13.30;;;;;;;5.91;95.09;97925.89;109057;1278;138909;-59
2022/04/01 00:22:06;;;;;;;19.40;12.20;;;;;;;5.91;95.23;97919.17;109153;1277;23367;-60
2022/04/01 00:24:35;;;;;;;21.50;13.20;;;;;;;5.92;95.30;97919.76;109064;1277;139672;-59
2022/04/01 00:27:03;;;;;;;19.10;12.20;;;;;;;5.92;95.44;97916.30;109166;1277;22322;-59
2022/04/01 00:29:31;;;;;;;21.90;13.50;;;;;;;5.95;95.27;97912.73;109381;1274;138095;-59
2022/04/01 00:32:00;;;;;;;20.90;13.80;;;;;;;5.96;95.48;97908.73;109424;1274;22497;-59
2022/04/01 00:34:30;;;;;;;20.50;13.40;;;;;;;5.97;95.66;97906.04;109468;1274;22478;-59
2022/04/01 00:37:00;;;;;;;21.80;13.00;;;;;;;5.98;95.58;97904.21;109350;1274;138871;-59
2022/04/01 00:39:29;;;;;;;22.30;13.90;;;;;;;6.00;95.57;97902.86;109458;1274;22479;-59
2022/04/01 00:41:59;;;;;;;21.80;14.40;;;;;;;6.01;95.88;97902.32;109217;1274;139292;-59
2022/04/01 00:44:34;;;;;;;26.10;14.70;;;;;;;6.01;95.49;97901.19;109437;1273;22455;-59
2022/04/01 00:47:04;;;;;;;21.70;14.60;;;;;;;6.03;95.97;97899.63;109381;1274;23674;-60
2022/04/01 00:49:33;;;;;;;25.80;15.90;;;;;;;6.06;96.18;97897.04;109305;1274;138180;-59
2022/04/01 00:52:02;;;;;;;23.20;14.70;;;;;;;6.09;95.99;97898.69;109436;1274;22564;-59
2022/04/01 00:54:34;;;;;;;21.50;15.00;;;;;;;6.11;96.44;97901.25;109346;1274;137972;-59
2022/04/01 00:57:11;;;;;;;24.60;16.70;;;;;;;6.14;96.37;97897.52;109447;1274;22450;-59
2022/04/01 00:59:42;;;;;;;28.20;16.50;;;;;;;6.16;95.92;97898.93;109311;1274;139496;-59
2022/04/01 01:02:11;;;;;;;22.10;15.20;;;;;;;6.19;96.41;97901.55;109413;1274;22440;-60
2022/04/01 01:04:41;;;;;;;26.30;15.50;;;;;;;6.23;96.25;97903.91;109452;1274;22406;-59
2022/04/01 01:07:10;;;;;;;25.90;16.50;;;;;;;6.26;96.47;97902.23;105643;1274;138655;-59
2022/04/01 01:09:40;;;;;;;23.10;14.10;;;;;;;6.30;96.50;97893.32;109340;1274;22566;-59
2022/04/01 01:12:08;;;;;;;23.30;16.40;;;;;;;6.32;96.59;97891.81;109333;1274;139056;-59
2022/04/01 01:14:38;;;;;;;24.30;15.10;;;;;;;6.34;96.61;97903.55;109474;1274;22406;-59
2022/04/01 01:17:14;;;;;;;21.90;14.60;;;;;;;6.36;96.31;97900.23;109431;1274;22368;-60
2022/04/01 01:19:45;;;;;;;20.80;15.00;;;;;;;6.39;96.28;97890.92;109362;1273;139268;-60
2022/04/01 01:22:14;;;;;;;24.60;15.60;;;;;;;6.42;96.49;97885.64;109487;1274;22407;-59
2022/04/01 01:24:43;;;;;;;21.70;14.80;;;;;;;6.46;96.73;97879.46;109317;1274;138622;-59
2022/04/01 01:27:13;;;;;;;22.90;14.30;;;;;;;6.48;96.58;97867.03;109447;1274;22381;-60
2022/04/01 01:29:42;;;;;;;19.20;14.60;;;;;;;6.49;96.44;97862.91;109164;1275;138523;-59
2022/04/01 01:32:12;;;;;;;21.10;14.10;;;;;;;6.50;96.21;97861.11;109447;1274;23615;-59
2022/04/01 01:34:41;;;;;;;22.00;13.40;;;;;;;6.51;96.22;97855.05;109464;1274;22433;-60
2022/04/01 01:37:10;;;;;;;22.20;14.60;;;;;;;6.51;95.96;97853.52;109336;1274;138576;-59
2022/04/01 01:39:39;;;;;;;21.00;14.10;;;;;;;6.51;95.92;97846.13;109362;1273;22461;-59
2022/04/01 01:42:07;;;;;;;23.90;14.60;;;;;;;6.51;96.34;97845.27;109326;1274;138308;-59
2022/04/01 01:44:36;;;;;;;19.00;14.30;;;;;;;6.52;95.93;97840.98;109444;1274;22678;-59
2022/04/01 01:47:05;;;;;;;20.60;14.10;;;;;;;6.52;95.83;97836.44;109484;1274;22443;-59
2022/04/01 01:49:34;;;;;;;22.70;13.50;;;;;;;6.51;95.96;97828.76;109256;1274;138857;-59
2022/04/01 01:54:50;;;;;;;17.70;12.80;;;;;;;6.48;95.63;97813.68;109365;1274;137966;-59
2022/04/01 01:57:23;;;;;;;23.20;14.10;;;;;;;6.47;95.60;97807.67;109418;1274;23317;-59
2022/04/01 01:59:52;;;;;;;21.30;14.00;;;;;;;6.45;95.46;97802.26;109242;1274;139665;-59
2022/04/01 02:02:21;;;;;;;16.60;12.40;;;;;;;6.42;95.53;97794.96;109457;1274;23062;-59
2022/04/01 02:04:50;;;;;;;20.60;13.50;;;;;;;6.40;95.30;97789.92;109449;1272;22502;-59
2022/04/01 02:07:20;;;;;;;19.50;12.10;;;;;;;6.39;95.77;97772.40;109357;1274;138702;-59
2022/04/01 02:09:48;;;;;;;20.60;12.80;;;;;;;6.38;95.79;97754.98;109463;1273;22480;-59
2022/04/01 02:12:17;;;;;;;18.90;13.20;;;;;;;6.37;95.44;97754.33;109352;1274;138710;-58
2022/04/01 02:15:05;;;;;;;19.00;11.60;;;;;;;6.37;95.83;97759.20;109423;1274;22437;-60
2022/04/01 02:17:37;;;;;;;18.20;12.30;;;;;;;6.37;95.64;97753.25;109289;1274;139224;-60
2022/04/01 02:20:09;;;;;;;15.50;11.30;;;;;;;6.37;95.78;97751.95;109358;1274;22500;-59
2022/04/01 02:22:37;;;;;;;16.70;11.90;;;;;;;6.37;95.83;97757.85;109405;1274;22401;-59
2022/04/01 02:25:07;;;;;;;15.00;11.10;;;;;;;6.36;95.58;97757.68;109316;1274;138206;-60
2022/04/01 02:27:35;;;;;;;14.70;11.80;;;;;;;6.34;95.52;97759.98;109463;1274;22254;-59
2022/04/01 02:30:11;;;;;;;14.20;10.30;;;;;;;6.33;95.83;97767.34;109347;1274;140283;-59
2022/04/01 02:32:50;;;;;;;15.00;10.60;;;;;;;6.32;95.49;97762.90;109491;1274;23217;-58
2022/04/01 02:35:29;;;;;;;13.20;10.30;;;;;;;6.31;95.60;97759.39;109253;1274;139606;-59
2022/04/01 02:37:58;;;;;;;14.00;10.20;;;;;;;6.31;95.81;97746.46;109409;1274;22401;-59
2022/04/01 02:40:27;;;;;;;12.70;9.30;;;;;;;6.30;95.69;97737.48;109378;1274;22535;-59
2022/04/01 02:42:58;;;;;;;12.20;9.10;;;;;;;6.28;95.62;97740.56;109318;1274;138198;-59
2022/04/01 02:45:26;;;;;;;11.40;8.60;;;;;;;6.26;95.73;97730.94;109358;1274;22420;-59
2022/04/01 02:47:55;;;;;;;13.50;9.30;;;;;;;6.25;95.97;97731.21;109271;1274;138460;-59
2022/04/01 02:50:26;;;;;;;14.70;8.70;;;;;;;6.24;95.61;97740.40;109404;1274;22582;-60
2022/04/01 02:52:54;;;;;;;14.30;9.00;;;;;;;6.23;95.95;97746.13;109370;1274;22689;-59
2022/04/01 02:55:22;;;;;;;11.90;9.10;;;;;;;6.23;95.83;97739.81;108817;1274;140157;-59
2022/04/01 02:57:51;;;;;;;12.00;8.10;;;;;;;6.23;96.16;97735.86;109498;1274;22362;-58
2022/04/01 03:00:21;;;;;;;12.00;8.10;;;;;;;6.23;96.07;97734.08;109332;1274;138279;-59
2022/04/01 03:03:01;;;;;;;9.70;8.10;;;;;;;6.24;95.93;97730.84;109396;1274;22413;-59
2022/04/01 03:05:31;;;;;;;15.20;9.50;;;;;;;6.25;95.90;97724.71;109293;1274;138555;-59
2022/04/01 03:08:17;;;;;;;9.60;7.70;;;;;;;6.26;95.87;97720.28;109418;1274;22425;-59
2022/04/01 03:10:45;;;;;;;10.70;8.10;;;;;;;6.26;96.13;97720.23;109475;1274;22551;-60
2022/04/01 03:13:14;;;;;;;9.60;7.20;;;;;;;6.28;95.94;97721.96;109266;1274;138672;-59
2022/04/01 03:16:08;;;;;;;11.10;7.70;;;;;;;6.30;95.95;97725.52;109380;1274;22562;-59
2022/04/01 03:18:51;;;;;;;8.90;7.30;;;;;;;6.32;96.14;97728.94;109345;1274;139687;-59
2022/04/01 03:21:20;;;;;;;10.50;7.90;;;;;;;6.34;96.30;97732.28;109365;1274;22411;-59
2022/04/01 03:23:48;;;;;;;9.50;6.10;;;;;;;6.35;96.10;97736.59;109372;1274;139630;-59
2022/04/01 03:26:20;;;;;;;10.40;7.50;;;;;;;6.35;96.00;97737.55;109334;1274;22409;-59
2022/04/01 03:28:53;;;;;;;8.10;6.80;;;;;;;6.37;96.14;97735.83;109368;1274;23314;-60
2022/04/01 03:31:23;;;;;;;10.80;7.60;;;;;;;6.40;96.20;97724.41;109338;1274;137912;-59
2022/04/01 03:33:52;;;;;;;8.50;7.30;;;;;;;6.43;96.15;97721.11;109362;1274;22445;-60
2022/04/01 03:36:20;;;;;;;10.10;6.90;;;;;;;6.44;96.38;97719.54;109249;1274;137994;-60
2022/04/01 03:38:50;;;;;;;8.80;6.40;;;;;;;6.45;96.18;97722.67;109362;1274;22536;-59
2022/04/01 03:41:30;;;;;;;8.50;6.80;;;;;;;6.46;96.29;97723.43;109250;1274;139283;-59
2022/04/01 03:44:00;;;;;;;8.50;6.80;;;;;;;6.48;96.22;97731.11;109342;1276;22504;-59
2022/04/01 03:46:47;;;;;;;8.50;7.10;;;;;;;6.50;96.37;97735.47;109421;1274;22557;-59
2022/04/01 03:49:22;;;;;;;8.40;6.40;;;;;;;6.53;96.04;97740.39;109352;1274;137739;-60
2022/04/01 03:51:51;;;;;;;8.70;7.10;;;;;;;6.55;95.98;97741.95;109345;1274;22404;-59
2022/04/01 03:54:20;;;;;;;8.70;6.70;;;;;;;6.58;96.15;97746.44;109352;1274;139644;-59
2022/04/01 03:57:08;;;;;;;11.00;8.60;;;;;;;6.61;96.14;97748.93;105562;1274;22788;-59
2022/04/01 03:59:57;;;;;;;12.50;9.00;;;;;;;6.65;96.11;97743.05;104803;1274;138616;-59
2022/04/01 04:02:41;;;;;;;12.70;9.80;;;;;;;6.66;96.16;97736.70;109472;1274;22429;-60
2022/04/01 04:05:09;;;;;;;16.70;10.30;;;;;;;6.68;96.19;97736.06;109360;1274;22416;-59
2022/04/01 04:07:39;;;;;;;15.20;10.40;;;;;;;6.69;95.95;97731.56;109321;1274;139032;-59
2022/04/01 04:10:11;;;;;;;16.00;10.60;;;;;;;6.71;96.07;97724.52;109287;1274;22391;-59
2022/04/01 04:12:58;;;;;;;13.60;9.60;;;;;;;6.72;96.03;97716.94;109261;1274;138992;-60
2022/04/01 04:15:29;;;;;;;13.10;10.30;;;;;;;6.73;96.20;97714.51;109359;1274;22451;-60
2022/04/01 04:18:01;;;;;;;14.90;10.80;;;;;;;6.73;96.11;97713.54;109227;1274;138521;-59
2022/04/01 04:20:33;;;;;;;15.00;10.10;;;;;;;6.74;95.90;97710.71;109292;1274;22383;-60
2022/04/01 04:23:16;;;;;;;12.40;10.90;;;;;;;6.76;96.34;97713.48;109264;1274;22580;-59
2022/04/01 04:25:53;;;;;;;12.90;10.70;;;;;;;6.76;96.08;97703.67;108139;1277;137966;-59
2022/04/01 04:28:25;;;;;;;17.90;13.20;;;;;;;6.77;95.86;97705.13;109350;1274;22518;-60
2022/04/01 04:31:05;;;;;;;15.30;10.80;;;;;;;6.78;95.99;97701.77;109246;1275;138229;-59
2022/04/01 04:33:45;;;;;;;17.50;13.60;;;;;;;6.79;96.19;97698.44;109301;1275;22505;-59
2022/04/01 04:36:19;;;;;;;17.60;13.40;;;;;;;6.82;96.32;97694.37;109312;1274;138449;-60
2022/04/01 04:38:57;;;;;;;20.90;14.30;;;;;;;6.84;96.37;97690.41;109412;1274;22477;-59
2022/04/01 04:41:26;;;;;;;21.10;14.30;;;;;;;6.86;96.32;97687.16;109305;1274;138218;-60
2022/04/01 04:44:02;;;;;;;26.80;17.10;;;;;;;6.88;96.56;97689.91;109457;1274;22421;-59
2022/04/01 04:46:32;;;;;;;24.70;16.90;;;;;;;6.91;96.43;97683.73;109252;1275;22514;-59
2022/04/01 04:49:00;;;;;;;26.50;17.10;;;;;;;6.95;96.60;97680.38;109014;1274;139632;-59
2022/04/01 04:51:29;;;;;;;27.60;19.20;;;;;;;6.98;96.50;97683.89;109285;1277;22577;-60
2022/04/01 04:54:14;;;;;;;24.80;18.20;;;;;;;7.01;96.44;97677.98;109292;1274;139038;-59
2022/04/01 04:56:53;;;;;;;25.60;18.10;;;;;;;7.02;96.75;97673.21;109361;1274;22541;-59
2022/04/01 04:59:22;;;;;;;26.90;18.30;;;;;;;7.06;96.90;97669.98;109374;1274;22489;-59
2022/04/01 05:02:05;;;;;;;26.80;18.50;;;;;;;7.09;96.66;97663.83;109320;1274;139127;-59
2022/04/01 05:04:51;;;;;;;28.80;18.90;;;;;;;7.12;96.73;97663.17;109313;1274;22412;-59
2022/04/01 05:07:57;;;;;;;30.70;18.40;;;;;;;7.14;97.07;97666.36;109304;1274;138843;-60
2022/04/01 05:11:02;;;;;;;28.80;18.60;;;;;;;7.17;96.80;97670.02;109428;1274;22436;-59
2022/04/01 05:14:16;;;;;;;26.50;18.00;;;;;;;7.18;97.10;97665.15;109339;1274;138701;-59
2022/04/01 05:16:54;;;;;;;28.90;20.30;;;;;;;7.22;96.92;97668.48;108627;1281;22296;-59
2022/04/01 05:19:28;;;;;;;34.20;20.20;;;;;;;7.24;97.18;97666.39;108831;1279;138280;-59
2022/04/01 05:22:05;;;;;;;30.60;20.60;;;;;;;7.26;96.95;97660.80;108938;1280;23058;-59
2022/04/01 05:24:51;;;;;;;36.60;22.50;;;;;;;7.29;97.19;97659.01;108840;1280;139433;-60
2022/04/01 05:27:28;;;;;;;34.30;20.80;;;;;;;7.31;97.15;97660.72;108679;1281;22497;-60
2022/04/01 05:30:20;;;;;;;31.40;20.00;;;;;;;7.33;97.09;97664.45;108687;1281;139533;-60
2022/04/01 05:33:06;;;;;;;29.90;20.00;;;;;;;7.35;97.41;97663.13;108910;1280;23509;-59
2022/04/01 05:35:39;;;;;;;29.00;20.30;;;;;;;7.38;97.46;97666.06;107826;1283;140622;-59
2022/04/01 05:38:07;;;;;;;31.20;21.20;;;;;;;7.41;97.10;97662.90;108940;1280;22460;-59
2022/04/01 05:40:38;;;;;;;31.20;20.50;;;;;;;7.43;97.21;97654.66;108952;1280;22516;-60
2022/04/01 05:43:10;;;;;;;29.60;20.30;;;;;;;7.46;97.03;97653.83;108834;1279;138852;-60
2022/04/01 05:45:43;;;;;;;30.10;21.00;;;;;;;7.48;97.22;97650.25;108951;1280;23205;-60
2022/04/01 05:48:14;;;;;;;31.30;19.90;;;;;;;7.50;97.29;97648.00;108769;1280;139874;-60
2022/04/01 05:50:43;;;;;;;30.00;21.20;;;;;;;7.51;97.42;97644.90;108891;1281;22410;-60
2022/04/01 05:53:12;;;;;;;27.40;19.40;;;;;;;7.55;97.26;97645.13;108982;1277;22511;-60
2022/04/01 05:55:46;;;;;;;32.40;20.30;;;;;;;7.56;97.26;97641.00;109129;1277;138186;-60
2022/04/01 05:58:15;;;;;;;30.30;20.10;;;;;;;7.59;97.55;97640.55;109289;1276;22653;-61
2022/04/01 06:00:59;;;;;;;31.50;21.00;;;;;;;7.61;97.27;97645.14;109182;1277;139111;-60
2022/04/01 06:03:31;;;;;;;29.70;19.60;;;;;;;7.64;97.45;97641.53;109235;1277;23082;-60
2022/04/01 06:06:03;;;;;;;33.40;19.90;;;;;;;7.67;97.30;97638.89;109147;1277;138390;-60
2022/04/01 06:08:44;;;;;;;27.30;19.00;;;;;;;7.69;97.29;97632.59;109246;1276;22545;-60
2022/04/01 06:12:04;;;;;;;32.40;21.10;;;;;;;7.73;97.30;97627.95;109088;1277;138398;-60
2022/04/01 06:15:18;;;;;;;30.80;21.40;;;;;;;7.75;97.17;97626.79;109338;1275;23396;-60
2022/04/01 06:18:14;;;;;;;29.10;19.00;;;;;;;7.76;97.37;97625.32;109177;1275;138462;-59
2022/04/01 06:20:45;;;;;;;29.00;20.80;;;;;;;7.77;97.23;97621.96;109242;1276;22528;-58
2022/04/01 06:23:27;;;;;;;32.00;21.70;;;;;;;7.77;97.23;97618.48;109133;1277;22439;-58
2022/04/01 06:26:00;;;;;;;38.00;25.10;;;;;;;7.79;97.30;97619.45;109119;1276;138393;-58
2022/04/01 06:28:31;;;;;;;35.20;23.00;;;;;;;7.79;97.43;97624.20;109307;1276;22430;-59
2022/04/01 06:31:04;;;;;;;33.50;21.90;;;;;;;7.81;97.47;97632.20;108924;1276;138371;-57
2022/04/01 06:34:13;;;;;;;36.60;24.20;;;;;;;7.84;97.43;97627.25;109268;1276;22433;-58
2022/04/01 06:37:04;;;;;;;43.00;24.30;;;;;;;7.88;97.64;97625.85;105698;1275;138775;-58
2022/04/01 06:39:58;;;;;;;36.10;24.00;;;;;;;7.90;97.57;97620.47;109240;1275;22418;-58
2022/04/01 06:42:32;;;;;;;41.60;26.00;;;;;;;7.92;97.46;97618.83;109089;1277;140219;-58
2022/04/01 06:45:23;;;;;;;37.90;22.50;;;;;;;7.95;97.63;97617.20;109349;1275;22518;-58
2022/04/01 06:48:10;;;;;;;31.90;20.70;;;;;;;7.97;97.81;97617.84;109206;1276;139940;-58
2022/04/01 06:50:59;;;;;;;39.90;23.80;;;;;;;8.00;97.68;97621.00;109359;1275;23222;-60
2022/04/01 06:53:57;;;;;;;37.30;23.90;;;;;;;8.04;97.87;97616.30;109018;1276;138926;-60
2022/04/01 06:56:44;;;;;;;36.30;22.40;;;;;;;8.10;97.84;97616.48;109282;1276;22403;-58
2022/04/01 06:59:13;;;;;;;43.60;23.50;;;;;;;8.13;98.08;97622.05;109228;1276;23006;-58
2022/04/01 07:01:42;;;;;;;47.70;27.20;;;;;;;8.17;98.14;97615.34;109183;1276;139430;-59
2022/04/01 07:04:11;;;;;;;46.40;25.80;;;;;;;8.22;98.22;97611.25;109277;1276;22407;-59
2022/04/01 07:06:59;;;;;;;46.50;26.90;;;;;;;8.27;98.35;97617.00;109200;1276;139772;-59
2022/04/01 07:09:27;;;;;;;42.40;26.90;;;;;;;8.30;98.44;97618.38;109283;1276;22285;-59
2022/04/01 07:12:01;;;;;;;42.80;25.30;;;;;;;8.35;98.43;97610.34;109117;1277;138360;-59
2022/04/01 07:14:33;;;;;;;54.70;28.20;;;;;;;8.39;98.32;97610.27;109290;1276;22486;-59
2022/04/01 07:17:01;;;;;;;47.60;26.70;;;;;;;8.42;98.36;97612.89;109292;1276;23555;-59
2022/04/01 07:19:30;;;;;;;44.60;24.30;;;;;;;8.45;98.37;97612.38;109175;1276;138397;-60
2022/04/01 07:21:58;;;;;;;39.40;27.50;;;;;;;8.48;98.28;97610.92;109284;1276;22430;-60
2022/04/01 07:24:27;;;;;;;37.70;25.90;;;;;;;8.52;98.23;97603.32;109176;1276;139900;-59
2022/04/01 07:26:55;;;;;;;44.80;26.60;;;;;;;8.56;98.29;97601.96;109291;1276;22249;-59
2022/04/01 07:29:23;;;;;;;42.60;26.40;;;;;;;8.58;98.17;97601.34;109289;1276;22503;-59
2022/04/01 07:34:42;;;;;;;44.80;25.50;;;;;;;8.63;98.20;97591.83;109310;1276;22435;-59
2022/04/01 07:37:11;;;;;;;49.10;26.30;;;;;;;8.66;98.12;97592.22;109185;1276;138392;-59
2022/04/01 07:39:41;;;;;;;44.40;23.80;;;;;;;8.68;98.17;97593.80;109231;1277;22396;-59
2022/04/01 07:42:09;;;;;;;41.70;24.90;;;;;;;8.71;98.14;97599.48;109178;1276;139249;-59
2022/04/01 07:44:39;;;;;;;42.50;24.80;;;;;;;8.76;98.17;97594.09;109303;1276;22413;-59
2022/04/01 07:47:09;;;;;;;39.40;22.40;;;;;;;8.81;98.08;97598.95;109292;1276;23345;-59
2022/04/01 07:49:37;;;;;;;40.60;24.00;;;;;;;8.83;98.08;97598.75;109176;1276;139534;-59
2022/04/01 07:52:21;;;;;;;42.70;23.90;;;;;;;8.86;97.98;97598.88;109374;1274;23247;-59
2022/04/01 07:54:50;;;;;;;39.40;22.40;;;;;;;8.88;97.87;97596.20;109364;1274;139125;-59
2022/04/01 07:57:18;;;;;;;45.00;23.20;;;;;;;8.91;97.97;97597.02;109452;1274;22638;-60
2022/04/01 07:59:48;;;;;;;43.90;22.60;;;;;;;8.94;97.86;97589.66;109384;1274;139695;-59
2022/04/01 08:02:16;;;;;;;38.90;22.30;;;;;;;8.95;97.70;97584.14;109391;1277;22512;-59
2022/04/01 08:04:45;;;;;;;40.50;21.70;;;;;;;8.98;97.68;97577.58;109433;1274;23222;-59
2022/04/01 08:07:15;;;;;;;44.70;23.70;;;;;;;9.02;97.64;97573.17;109350;1273;139081;-59
2022/04/01 08:09:44;;;;;;;39.50;24.00;;;;;;;9.07;97.68;97568.91;109459;1273;22475;-59
2022/04/01 08:12:13;;;;;;;47.70;22.20;;;;;;;9.12;97.65;97569.74;109361;1274;138473;-59
2022/04/01 08:14:42;;;;;;;51.60;24.20;;;;;;;9.15;97.52;97568.23;109473;1274;22443;-59
2022/04/01 08:17:12;;;;;;;48.70;23.90;;;;;;;9.17;97.51;97566.26;109431;1274;22403;-63
2022/04/01 08:19:53;;;;;;;42.00;23.50;;;;;;;9.20;97.46;97560.77;109329;1274;139193;-64
2022/04/01 08:22:21;;;;;;;41.80;22.90;;;;;;;9.22;97.17;97557.79;109392;1277;23208;-63
2022/04/01 08:24:51;;;;;;;46.10;25.00;;;;;;;9.25;97.21;97560.29;109350;1274;138225;-63
2022/04/01 08:27:19;;;;;;;42.60;24.60;;;;;;;9.28;97.07;97562.10;109446;1274;22434;-63
2022/04/01 08:29:47;;;;;;;49.40;22.20;;;;;;;9.30;96.83;97556.04;109310;1277;139595;-62
2022/04/01 08:32:15;;;;;;;49.70;22.10;;;;;;;9.30;96.75;97553.05;109436;1274;22513;-62
2022/04/01 08:34:47;;;;;;;43.80;22.30;;;;;;;9.29;96.58;97555.17;109455;1274;22518;-62
2022/04/01 08:37:15;;;;;;;41.60;21.60;;;;;;;9.31;96.63;97562.16;109267;1275;139479;-63
2022/04/01 08:39:48;;;;;;;42.60;21.10;;;;;;;9.33;96.60;97563.17;109468;1274;22446;-64
2022/04/01 08:42:16;;;;;;;47.20;21.30;;;;;;;9.36;96.42;97564.20;109380;1274;139157;-62
2022/04/01 08:44:50;;;;;;;44.60;21.10;;;;;;;9.37;96.26;97562.98;109465;1274;22420;-64
2022/04/01 08:47:19;;;;;;;42.10;20.70;;;;;;;9.38;96.18;97561.38;105348;1276;22551;-59
2022/04/01 08:49:47;;;;;;;38.50;22.30;;;;;;;9.41;96.12;97563.39;109353;1274;138169;-59
2022/04/01 08:52:17;;;;;;;43.60;22.40;;;;;;;9.44;96.11;97568.95;109494;1272;22270;-59
2022/04/01 08:54:45;;;;;;;35.20;21.50;;;;;;;9.47;96.14;97575.91;108994;1277;138882;-59
2022/04/01 08:57:17;;;;;;;38.80;19.90;;;;;;;9.50;96.10;97576.17;109354;1276;22485;-59
2022/04/01 08:59:47;;;;;;;45.90;22.80;;;;;;;9.53;95.94;97581.28;109366;1274;139904;-60
2022/04/01 09:02:16;;;;;;;50.50;22.50;;;;;;;9.54;95.82;97581.38;109427;1274;23040;-59
2022/04/01 09:04:51;;;;;;;42.70;20.70;;;;;;;9.56;95.69;97571.45;109474;1272;23251;-59
2022/04/01 09:07:19;;;;;;;39.40;23.10;;;;;;;9.57;95.55;97571.70;109135;1274;138947;-59
2022/04/01 09:09:47;;;;;;;38.70;19.90;;;;;;;9.59;95.47;97575.77;109478;1274;22448;-60
2022/04/01 09:12:16;;;;;;;45.00;20.70;;;;;;;9.62;95.40;97577.13;109338;1273;139001;-59
2022/04/01 09:14:53;;;;;;;35.20;20.10;;;;;;;9.65;95.32;97581.92;109464;1274;22419;-59
2022/04/01 09:17:21;;;;;;;42.70;20.90;;;;;;;9.69;95.19;97583.77;105391;1274;23220;-63
2022/04/01 09:20:06;;;;;;;40.20;19.50;;;;;;;9.73;95.21;97590.23;109347;1274;139095;-63
2022/04/01 09:22:35;;;;;;;37.70;19.90;;;;;;;9.78;95.26;97592.61;109446;1274;23658;-63
2022/04/01 09:25:09;;;;;;;42.90;19.90;;;;;;;9.80;95.08;97586.05;109352;1274;138721;-62
2022/04/01 09:27:50;;;;;;;43.70;19.70;;;;;;;9.79;94.81;97584.00;109435;1274;22476;-63
2022/04/01 09:30:28;;;;;;;38.10;21.20;;;;;;;9.80;94.67;97579.14;109360;1274;138868;-63
2022/04/01 09:32:58;;;;;;;35.40;19.80;;;;;;;9.82;94.57;97576.36;109338;1276;23733;-63
2022/04/01 09:35:28;;;;;;;41.10;19.30;;;;;;;9.85;94.65;97572.89;109448;1274;22483;-63
2022/04/01 09:38:04;;;;;;;39.50;19.20;;;;;;;9.88;94.69;97573.64;109352;1274;139039;-63
2022/04/01 09:40:35;;;;;;;38.00;20.40;;;;;;;9.90;94.42;97574.21;109479;1274;23215;-64
2022/04/01 09:43:07;;;;;;;41.90;19.70;;;;;;;9.93;94.45;97573.01;109141;1274;138765;-63
2022/04/01 09:45:36;;;;;;;32.20;17.80;;;;;;;9.98;94.57;97571.83;109454;1274;22297;-64
2022/04/01 09:48:09;;;;;;;43.50;19.40;;;;;;;10.02;94.51;97574.67;109349;1274;138895;-63
2022/04/01 09:50:40;;;;;;;31.80;18.70;;;;;;;10.08;94.50;97578.37;109439;1274;23376;-63
2022/04/01 09:53:13;;;;;;;35.60;19.00;;;;;;;10.12;94.35;97574.59;109375;1274;22426;-63
2022/04/01 09:55:43;;;;;;;35.80;18.30;;;;;;;10.13;94.18;97573.80;109279;1274;138736;-60
2022/04/01 09:58:12;;;;;;;33.20;17.70;;;;;;;10.13;94.08;97575.21;109376;1274;22446;-60
2022/04/01 10:00:43;;;;;;;31.60;18.30;;;;;;;10.13;93.81;97576.78;109355;1274;138481;-60
2022/04/01 10:03:12;;;;;;;33.70;16.70;;;;;;;10.15;93.87;97579.27;109469;1274;22486;-60
2022/04/01 10:05:42;;;;;;;29.50;18.20;;;;;;;10.17;94.04;97580.81;109375;1274;138820;-60
2022/04/01 10:10:17;;;;;;;31.20;17.10;;;;;;;10.25;93.81;97578.05;101786;1309;545328;-59
2022/04/01 10:12:47;;;;;;;30.20;17.70;;;;;;;10.27;93.71;97573.54;107975;1286;138608;-59
2022/04/01 10:15:15;;;;;;;40.90;19.70;;;;;;;10.31;93.59;97571.13;107968;1289;22388;-59
2022/04/01 10:17:55;;;;;;;36.30;18.80;;;;;;;10.34;93.27;97570.91;108115;1286;137968;-59
2022/04/01 10:20:43;;;;;;;35.00;17.90;;;;;;;10.38;93.25;97572.81;108000;1288;22481;-60
2022/04/01 10:23:26;;;;;;;33.30;21.50;;;;;;;10.40;93.23;97571.70;107925;1285;155733;-59
2022/04/01 10:26:07;;;;;;;34.20;18.30;;;;;;;10.43;93.19;97577.14;108421;1280;138571;-59
2022/04/01 10:28:35;;;;;;;35.70;19.70;;;;;;;10.45;92.83;97570.99;108826;1281;23342;-59
2022/04/01 10:31:04;;;;;;;33.00;19.00;;;;;;;10.48;93.08;97572.47;108743;1281;138196;-59
2022/04/01 10:33:36;;;;;;;34.20;21.10;;;;;;;10.52;92.91;97571.90;108759;1281;22433;-59
2022/04/01 10:36:31;;;;;;;32.70;20.70;;;;;;;10.54;92.76;97570.36;108609;1282;139795;-60
2022/04/01 10:39:04;;;;;;;38.00;20.20;;;;;;;10.55;92.63;97568.55;108696;1281;23590;-59
2022/04/01 10:41:32;;;;;;;36.60;21.90;;;;;;;10.55;92.43;97568.88;108615;1282;22485;-60
2022/04/01 10:44:01;;;;;;;40.40;20.50;;;;;;;10.56;92.38;97570.00;108593;1282;140042;-59
2022/04/01 10:46:31;;;;;;;44.80;22.20;;;;;;;10.56;92.53;97573.85;108686;1283;22440;-60
2022/04/01 10:52:11;;;;;;;39.60;21.40;;;;;;;10.56;92.24;97569.48;109177;1277;22650;-59
2022/04/01 10:55:11;;;;;;;43.50;22.40;;;;;;;10.55;92.19;97578.89;109064;1277;138546;-59
2022/04/01 10:57:40;;;;;;;48.70;22.40;;;;;;;10.54;92.08;97580.48;109215;1277;22596;-59
2022/04/01 11:00:15;;;;;;;42.80;25.40;;;;;;;10.54;92.07;97584.40;109067;1277;139820;-59
2022/04/01 11:02:44;;;;;;;42.20;24.80;;;;;;;10.56;92.41;97586.13;109189;1277;23497;-60
2022/04/01 11:05:23;;;;;;;59.80;31.10;;;;;;;10.55;92.16;97582.97;109162;1277;22539;-59
2022/04/01 11:08:19;;;;;;;48.50;28.20;;;;;;;10.54;92.05;97583.81;109062;1277;138009;-59
2022/04/01 11:11:08;;;;;;;51.00;25.70;;;;;;;10.51;92.11;97580.42;109174;1277;22617;-59
2022/04/01 11:13:37;;;;;;;50.40;28.90;;;;;;;10.49;92.15;97579.11;109052;1277;138113;-59
2022/04/01 11:16:22;;;;;;;54.90;31.80;;;;;;;10.48;92.17;97579.00;109187;1277;22232;-59
2022/04/01 11:19:14;;;;;;;48.80;28.30;;;;;;;10.47;92.40;97576.58;109056;1277;138102;-59
2022/04/01 11:22:02;;;;;;;59.00;27.80;;;;;;;10.46;92.52;97581.15;109139;1277;22556;-59
2022/04/01 11:24:33;;;;;;;54.00;28.60;;;;;;;10.48;92.65;97585.44;108893;1277;138975;-59
2022/04/01 11:27:23;;;;;;;48.80;28.30;;;;;;;10.49;92.50;97583.89;109174;1277;22538;-60
2022/04/01 11:30:05;;;;;;;;;;;;;;;10.51;92.48;97587.65;109078;1277;138261;-59
2022/04/01 11:32:35;;;;;;;47.30;26.60;;;;;;;10.51;92.25;97589.58;109124;1277;22515;-59
2022/04/01 11:35:04;;;;;;;52.40;29.60;;;;;;;10.44;91.65;97595.31;109170;1277;23031;-59
2022/04/01 11:37:37;;;;;;;105.20;60.60;;;;;;;10.34;91.38;97593.84;109045;1277;138339;-59
2022/04/01 11:40:13;;;;;;;86.30;46.10;;;;;;;10.26;91.37;97598.02;109156;1277;22436;-59
2022/04/01 11:43:02;;;;;;;101.40;55.50;;;;;;;10.14;91.21;97592.55;109070;1277;139366;-59
2022/04/01 11:45:57;;;;;;;65.90;38.00;;;;;;;10.02;91.02;97591.98;109198;1277;22533;-59
2022/04/01 11:48:31;;;;;;;73.30;40.20;;;;;;;9.92;91.25;97595.99;109016;1277;139302;-59
2022/04/01 11:51:05;;;;;;;64.40;32.00;;;;;;;9.86;91.44;97601.03;109145;1277;23609;-59
2022/04/01 11:53:35;;;;;;;101.70;51.40;;;;;;;9.83;91.56;97606.58;109188;1277;22247;-59
2022/04/01 11:56:06;;;;;;;76.60;34.50;;;;;;;9.80;91.79;97607.85;107458;1277;137788;-59
2022/04/01 11:58:46;;;;;;;58.30;30.60;;;;;;;9.78;91.86;97605.29;109185;1277;22411;-60